Time;durP1;ratioP1;P1;durP2;ratioP2;P2;SDS_P1;SDS_P2;PMS_P1;PMS_P2;Temp;Humidity;BMP_temperature;BMP_pressure;BME280_temperature;BME280_humidity;BME280_pressure;Samples;Min_cycle;Max_cycle;Signal;HPM_P1;HPM_P2
2022/04/03 00:01:21;;;;;;;11.15;4.43;;;;;;;;;;10317643;28;20080;-68
2022/04/03 00:06:24;;;;;;;9.05;4.60;;;;;;;;;;10319409;28;20094;-67
2022/04/03 00:11:28;;;;;;;10.43;4.60;;;;;;;;;;10309341;28;20062;-67
2022/04/03 00:16:32;;;;;;;9.20;4.85;;;;;;;;;;10320346;28;20051;-68
2022/04/03 00:21:36;;;;;;;7.35;5.20;;;;;;;;;;10319299;28;20066;-67
2022/04/03 00:26:40;;;;;;;10.95;5.60;;;;;;;;;;10313723;28;20077;-67
2022/04/03 00:31:43;;;;;;;13.52;5.85;;;;;;;;;;10313922;28;20231;-67
2022/04/03 00:36:45;;;;;;;8.30;5.30;;;;;;;;;;10316794;28;20369;-68
2022/04/03 00:41:49;;;;;;;11.20;5.72;;;;;;;;;;10317793;28;20076;-68
2022/04/03 00:46:52;;;;;;;13.57;5.43;;;;;;;;;;10316738;28;20065;-66
2022/04/03 00:51:54;;;;;;;14.10;6.43;;;;;;;;;;10330599;28;20058;-67
2022/04/03 00:56:58;;;;;;;9.40;6.30;;;;;;;;;;10334220;28;20105;-67
2022/04/03 01:02:02;;;;;;;17.65;6.88;;;;;;;;;;10315113;28;20070;-68
2022/04/03 01:07:05;;;;;;;11.05;6.57;;;;;;;;;;10314966;28;20053;-68
2022/04/03 01:12:10;;;;;;;12.68;6.88;;;;;;;;;;10320613;28;20043;-67
2022/04/03 01:17:13;;;;;;;12.85;6.32;;;;;;;;;;10329748;28;20073;-68
2022/04/03 01:22:16;;;;;;;11.05;6.60;;;;;;;;;;10315269;28;20102;-68
2022/04/03 01:27:19;;;;;;;15.63;7.57;;;;;;;;;;10334924;28;20069;-67
2022/04/03 01:32:22;;;;;;;13.00;7.00;;;;;;;;;;10356727;28;20158;-68
2022/04/03 01:37:24;;;;;;;12.23;7.38;;;;;;;;;;10325364;28;20073;-68
2022/04/03 01:42:27;;;;;;;13.73;7.35;;;;;;;;;;10336904;28;20054;-68
2022/04/03 01:47:30;;;;;;;13.50;7.63;;;;;;;;;;10333205;28;20268;-67
2022/04/03 01:52:33;;;;;;;17.73;7.10;;;;;;;;;;10331648;28;20082;-67
2022/04/03 01:57:37;;;;;;;14.52;7.35;;;;;;;;;;10315747;28;20047;-66
2022/04/03 02:02:41;;;;;;;13.10;7.47;;;;;;;;;;10334339;28;20079;-68
2022/04/03 02:07:43;;;;;;;14.85;7.68;;;;;;;;;;10353160;28;20222;-67
2022/04/03 02:12:47;;;;;;;15.20;7.57;;;;;;;;;;10314553;28;20054;-67
2022/04/03 02:17:49;;;;;;;12.15;7.40;;;;;;;;;;10313814;28;20082;-68
2022/04/03 02:22:51;;;;;;;12.30;8.02;;;;;;;;;;10313667;28;20313;-68
2022/04/03 02:27:55;;;;;;;16.38;8.10;;;;;;;;;;10339778;28;20065;-67
2022/04/03 02:32:57;;;;;;;15.90;8.52;;;;;;;;;;10345939;28;20043;-67
2022/04/03 02:38:00;;;;;;;17.77;9.60;;;;;;;;;;10333549;28;20054;-67
2022/04/03 02:43:04;;;;;;;17.73;9.18;;;;;;;;;;10336382;28;20085;-67
2022/04/03 02:48:07;;;;;;;16.98;8.07;;;;;;;;;;10314309;28;20059;-67
2022/04/03 02:53:11;;;;;;;14.15;8.48;;;;;;;;;;10332808;28;20050;-67
2022/04/03 02:58:15;;;;;;;16.75;8.15;;;;;;;;;;10312255;28;20401;-67
2022/04/03 03:03:18;;;;;;;17.48;8.30;;;;;;;;;;10312408;28;20066;-67
2022/04/03 03:08:20;;;;;;;16.00;7.95;;;;;;;;;;10329454;28;20050;-67
2022/04/03 03:13:23;;;;;;;13.85;7.82;;;;;;;;;;10311286;28;20066;-68
2022/04/03 03:18:26;;;;;;;13.40;7.93;;;;;;;;;;10272902;28;20039;-67
2022/04/03 03:23:29;;;;;;;13.32;7.65;;;;;;;;;;10318792;28;20097;-67
2022/04/03 03:28:33;;;;;;;14.93;8.70;;;;;;;;;;10333855;28;20140;-67
2022/04/03 03:33:35;;;;;;;16.85;8.40;;;;;;;;;;10329177;28;20266;-67
2022/04/03 03:38:38;;;;;;;15.52;8.20;;;;;;;;;;10311623;28;20051;-66
2022/04/03 03:43:41;;;;;;;22.60;8.10;;;;;;;;;;10313229;28;20296;-66
2022/04/03 03:48:44;;;;;;;14.57;8.60;;;;;;;;;;10309269;28;20342;-67
2022/04/03 03:53:47;;;;;;;16.55;8.65;;;;;;;;;;10310762;28;20054;-67
2022/04/03 03:58:50;;;;;;;23.90;9.70;;;;;;;;;;10309689;28;20049;-67
2022/04/03 04:03:53;;;;;;;14.38;8.85;;;;;;;;;;10341658;28;20062;-67
2022/04/03 04:08:56;;;;;;;18.33;9.50;;;;;;;;;;10309239;28;20054;-68
2022/04/03 04:14:00;;;;;;;21.45;10.30;;;;;;;;;;10315026;28;20085;-69
2022/04/03 04:19:02;;;;;;;19.08;8.48;;;;;;;;;;10348760;28;20065;-67
2022/04/03 04:24:05;;;;;;;16.88;9.70;;;;;;;;;;10345230;28;20081;-67
2022/04/03 04:29:08;;;;;;;17.23;9.70;;;;;;;;;;10308740;28;20043;-67
2022/04/03 04:34:11;;;;;;;15.85;9.82;;;;;;;;;;10332540;28;20049;-68
2022/04/03 04:39:13;;;;;;;20.92;10.80;;;;;;;;;;10323542;28;20410;-68
2022/04/03 04:44:16;;;;;;;18.15;13.10;;;;;;;;;;10308746;28;20066;-67
2022/04/03 04:49:19;;;;;;;16.38;11.13;;;;;;;;;;10338083;28;20077;-67
2022/04/03 04:54:23;;;;;;;13.70;9.10;;;;;;;;;;10349522;28;20046;-67
2022/04/03 04:59:26;;;;;;;10.07;8.55;;;;;;;;;;10321987;28;20038;-68
2022/04/03 05:04:29;;;;;;;10.23;7.72;;;;;;;;;;10320386;28;20063;-67
2022/04/03 05:09:32;;;;;;;9.00;7.32;;;;;;;;;;10309103;28;20109;-67
2022/04/03 05:14:37;;;;;;;10.60;6.93;;;;;;;;;;10335849;28;20161;-67
2022/04/03 05:19:39;;;;;;;9.02;6.50;;;;;;;;;;10344048;28;20064;-68
2022/04/03 05:24:42;;;;;;;8.35;6.25;;;;;;;;;;10341425;28;20066;-67
2022/04/03 05:29:45;;;;;;;9.88;7.40;;;;;;;;;;10348714;28;20081;-68
2022/04/03 05:34:48;;;;;;;10.00;6.20;;;;;;;;;;10342773;28;20274;-68
2022/04/03 05:39:51;;;;;;;17.10;13.45;;;;;;;;;;10316371;28;20379;-68
2022/04/03 05:44:54;;;;;;;8.07;6.27;;;;;;;;;;10346531;28;20089;-67
2022/04/03 05:49:57;;;;;;;9.18;6.03;;;;;;;;;;10319603;28;20047;-67
2022/04/03 05:55:00;;;;;;;8.98;5.45;;;;;;;;;;10319811;28;20097;-66
2022/04/03 06:00:05;;;;;;;9.50;6.68;;;;;;;;;;10336117;28;20043;-67
2022/04/03 06:05:09;;;;;;;8.80;6.05;;;;;;;;;;10358693;28;20297;-69
2022/04/03 06:10:13;;;;;;;9.40;6.03;;;;;;;;;;10317427;28;20229;-67
2022/04/03 06:15:16;;;;;;;17.70;12.05;;;;;;;;;;10327986;28;20054;-68
2022/04/03 06:20:19;;;;;;;16.75;8.60;;;;;;;;;;10315869;28;20065;-68
2022/04/03 06:25:22;;;;;;;13.07;8.07;;;;;;;;;;10313846;28;20235;-67
2022/04/03 06:30:26;;;;;;;14.85;7.80;;;;;;;;;;10345317;28;20046;-68
2022/04/03 06:35:28;;;;;;;12.70;8.57;;;;;;;;;;10345258;28;20070;-68
2022/04/03 06:40:33;;;;;;;10.90;7.22;;;;;;;;;;10354560;28;20215;-67
2022/04/03 06:45:36;;;;;;;11.48;6.68;;;;;;;;;;10353092;28;20318;-68
2022/04/03 06:50:39;;;;;;;9.07;6.38;;;;;;;;;;10346957;28;20049;-68
2022/04/03 06:55:41;;;;;;;9.07;5.40;;;;;;;;;;10344254;28;20051;-68
2022/04/03 07:00:45;;;;;;;9.43;5.47;;;;;;;;;;10308666;28;20094;-68
2022/04/03 07:05:48;;;;;;;24.05;10.25;;;;;;;;;;10319873;28;20432;-68
2022/04/03 07:10:51;;;;;;;6.97;4.63;;;;;;;;;;10346760;28;20049;-67
2022/04/03 07:15:54;;;;;;;12.98;6.00;;;;;;;;;;10314089;28;20062;-68
2022/04/03 07:20:57;;;;;;;6.57;3.40;;;;;;;;;;10325270;28;20082;-68
2022/04/03 07:25:59;;;;;;;4.75;3.10;;;;;;;;;;10312822;28;20054;-69
2022/04/03 07:31:03;;;;;;;5.53;2.10;;;;;;;;;;10310967;28;20102;-67
2022/04/03 07:36:06;;;;;;;4.10;1.30;;;;;;;;;;10312291;28;20346;-68
2022/04/03 07:41:08;;;;;;;2.60;1.65;;;;;;;;;;10336435;28;20246;-68
2022/04/03 07:46:16;;;;;;;2.80;1.10;;;;;;;;;;10315909;28;20049;-68
2022/04/03 07:51:18;;;;;;;1.67;1.35;;;;;;;;;;10336003;28;20054;-68
2022/04/03 07:56:20;;;;;;;2.45;1.15;;;;;;;;;;10331777;28;20046;-68
2022/04/03 08:01:24;;;;;;;2.50;1.48;;;;;;;;;;10338310;28;20113;-68
2022/04/03 08:06:28;;;;;;;4.85;2.47;;;;;;;;;;10352065;28;20066;-67
2022/04/03 08:11:30;;;;;;;3.47;2.38;;;;;;;;;;10297423;28;20046;-68
2022/04/03 08:16:34;;;;;;;4.72;2.35;;;;;;;;;;10348099;28;21358;-68
2022/04/03 08:21:36;;;;;;;5.72;2.30;;;;;;;;;;10341564;28;20053;-68
2022/04/03 08:26:39;;;;;;;4.45;2.58;;;;;;;;;;10314556;28;20509;-68
2022/04/03 08:31:42;;;;;;;3.55;2.70;;;;;;;;;;10345155;28;20077;-67
2022/04/03 08:36:45;;;;;;;5.28;2.55;;;;;;;;;;10320165;28;20111;-69
2022/04/03 08:41:47;;;;;;;15.45;3.70;;;;;;;;;;10285837;28;20042;-70
2022/04/03 08:46:51;;;;;;;4.70;3.08;;;;;;;;;;10323825;28;20245;-68
2022/04/03 08:51:54;;;;;;;3.45;2.85;;;;;;;;;;10331312;28;20046;-67
2022/04/03 08:56:56;;;;;;;4.50;2.58;;;;;;;;;;10326270;28;20053;-68
2022/04/03 09:02:00;;;;;;;3.13;2.17;;;;;;;;;;10352791;28;20189;-67
2022/04/03 09:07:03;;;;;;;5.30;3.38;;;;;;;;;;10372610;28;20048;-67
2022/04/03 09:12:10;;;;;;;2.50;2.30;;;;;;;;;;10358312;28;20049;-68
2022/04/03 09:17:31;;;;;;;1.88;1.77;;;;;;;;;;10343709;28;20072;-68
2022/04/03 09:22:35;;;;;;;5.53;2.35;;;;;;;;;;10332351;28;20084;-68
2022/04/03 09:27:48;;;;;;;4.60;2.10;;;;;;;;;;10319402;28;20042;-69
2022/04/03 09:32:54;;;;;;;4.78;2.03;;;;;;;;;;10353292;28;20047;-68
2022/04/03 09:38:14;;;;;;;4.35;2.10;;;;;;;;;;10356356;28;20062;-67
2022/04/03 09:43:19;;;;;;;3.05;2.30;;;;;;;;;;10341854;28;20102;-69
2022/04/03 09:48:23;;;;;;;;;;;;;;;;;;10331071;28;20154;-68
2022/04/03 09:53:27;;;;;;;3.45;2.20;;;;;;;;;;10345779;28;19921;-68
2022/04/03 09:58:29;;;;;;;5.88;2.25;;;;;;;;;;10357260;28;20050;-68
2022/04/03 10:03:33;;;;;;;7.85;2.47;;;;;;;;;;10332636;28;20099;-68
2022/04/03 10:08:37;;;;;;;3.65;2.50;;;;;;;;;;10335837;28;20056;-67
2022/04/03 10:13:40;;;;;;;4.28;2.40;;;;;;;;;;10356307;28;20061;-69
2022/04/03 10:18:44;;;;;;;6.38;2.40;;;;;;;;;;10354610;28;20105;-68
2022/04/03 10:23:47;;;;;;;3.07;2.07;;;;;;;;;;10348989;28;20050;-67
2022/04/03 10:28:54;;;;;;;2.42;2.13;;;;;;;;;;10355575;28;20096;-69
2022/04/03 10:33:58;;;;;;;7.95;2.28;;;;;;;;;;10366952;28;20050;-68
2022/04/03 10:39:04;;;;;;;2.60;2.40;;;;;;;;;;10353371;28;20050;-67
2022/04/03 10:44:14;;;;;;;5.65;2.85;;;;;;;;;;10328080;28;20059;-69
2022/04/03 10:49:19;;;;;;;3.88;3.08;;;;;;;;;;10325223;28;20042;-67
2022/04/03 10:54:32;;;;;;;3.00;2.70;;;;;;;;;;10355295;28;20061;-68
2022/04/03 10:59:35;;;;;;;6.30;3.35;;;;;;;;;;10351043;28;20108;-70
2022/04/03 11:04:39;;;;;;;5.60;3.67;;;;;;;;;;10318175;28;20121;-69
2022/04/03 11:09:43;;;;;;;4.53;2.67;;;;;;;;;;10312284;28;20045;-68
2022/04/03 11:14:56;;;;;;;4.43;2.30;;;;;;;;;;10337033;28;20043;-68
2022/04/03 11:20:00;;;;;;;3.70;2.50;;;;;;;;;;10326832;28;20296;-68
2022/04/03 11:25:03;;;;;;;2.83;2.28;;;;;;;;;;10312856;28;20286;-69
2022/04/03 11:30:07;;;;;;;5.97;3.13;;;;;;;;;;10314140;28;20050;-68
2022/04/03 11:35:11;;;;;;;6.43;3.27;;;;;;;;;;10313151;28;20046;-68
2022/04/03 11:40:14;;;;;;;3.70;2.90;;;;;;;;;;10313282;28;20300;-68
2022/04/03 11:45:16;;;;;;;3.35;2.40;;;;;;;;;;10344725;28;20073;-69
2022/04/03 11:50:21;;;;;;;9.38;4.18;;;;;;;;;;10334863;28;20067;-67
2022/04/03 11:55:35;;;;;;;12.07;4.80;;;;;;;;;;10313497;28;20059;-68
2022/04/03 12:00:46;;;;;;;7.82;4.50;;;;;;;;;;10325336;28;20070;-68
2022/04/03 12:05:51;;;;;;;6.35;2.92;;;;;;;;;;10325663;28;20419;-69
2022/04/03 12:10:53;;;;;;;6.28;3.20;;;;;;;;;;10352180;28;20349;-68
2022/04/03 12:15:56;;;;;;;8.10;3.88;;;;;;;;;;10341816;28;20051;-68
2022/04/03 12:21:00;;;;;;;3.22;2.50;;;;;;;;;;10342365;28;20050;-69
2022/04/03 12:26:02;;;;;;;4.38;3.30;;;;;;;;;;10350202;28;20054;-69
2022/04/03 12:31:05;;;;;;;9.00;4.50;;;;;;;;;;10351632;28;20042;-66
2022/04/03 12:36:08;;;;;;;6.72;3.85;;;;;;;;;;10339012;28;20047;-69
2022/04/03 12:41:13;;;;;;;6.38;2.35;;;;;;;;;;10310847;28;20047;-69
2022/04/03 12:46:18;;;;;;;8.07;2.50;;;;;;;;;;10311098;28;20043;-68
2022/04/03 12:51:22;;;;;;;7.22;3.10;;;;;;;;;;10346924;28;20281;-68
2022/04/03 12:58:24;;;;;;;4.55;2.47;;;;;;;;;;10351177;28;20338;-69
2022/04/03 13:01:52;;;;;;;4.30;2.60;;;;;;;;;;10352905;28;20053;-69
2022/04/03 13:06:56;;;;;;;7.65;2.80;;;;;;;;;;10346423;28;20385;-69
2022/04/03 13:11:59;;;;;;;12.13;5.57;;;;;;;;;;10312961;28;20043;-69
2022/04/03 13:17:04;;;;;;;7.80;3.20;;;;;;;;;;10321556;28;20054;-69
2022/04/03 13:22:08;;;;;;;3.97;2.80;;;;;;;;;;10348214;28;20221;-70
2022/04/03 13:27:10;;;;;;;9.95;3.35;;;;;;;;;;10348693;28;20050;-71
2022/04/03 13:32:12;;;;;;;5.70;2.83;;;;;;;;;;10348371;28;20078;-69
2022/04/03 13:37:16;;;;;;;5.45;3.20;;;;;;;;;;10350045;28;20218;-68
2022/04/03 13:42:18;;;;;;;4.95;3.00;;;;;;;;;;10356080;28;20269;-68
2022/04/03 13:47:21;;;;;;;5.63;3.33;;;;;;;;;;10358108;28;20092;-69
2022/04/03 13:52:26;;;;;;;9.82;2.78;;;;;;;;;;10340875;28;20057;-69
2022/04/03 13:57:31;;;;;;;5.60;2.95;;;;;;;;;;10312535;28;20055;-67
2022/04/03 14:02:34;;;;;;;9.13;3.20;;;;;;;;;;10316637;28;20058;-69
2022/04/03 14:07:38;;;;;;;9.52;3.35;;;;;;;;;;10315616;28;20239;-69
2022/04/03 14:12:40;;;;;;;8.77;4.30;;;;;;;;;;10336283;28;20042;-69
2022/04/03 14:17:43;;;;;;;6.32;3.25;;;;;;;;;;10315835;28;20215;-69
2022/04/03 14:22:46;;;;;;;4.13;2.80;;;;;;;;;;10315060;28;20043;-69
2022/04/03 14:27:49;;;;;;;3.63;2.45;;;;;;;;;;10341485;28;20054;-70
2022/04/03 14:32:51;;;;;;;6.78;2.83;;;;;;;;;;10328323;28;20097;-69
2022/04/03 14:37:55;;;;;;;10.88;3.05;;;;;;;;;;10342575;28;20046;-70
2022/04/03 14:42:58;;;;;;;9.35;2.75;;;;;;;;;;10327296;28;20288;-70
2022/04/03 14:48:01;;;;;;;38.60;13.35;;;;;;;;;;10333551;28;20061;-70
2022/04/03 14:53:05;;;;;;;44.38;12.85;;;;;;;;;;10353689;28;20046;-70
2022/04/03 14:58:08;;;;;;;25.40;7.97;;;;;;;;;;10318705;28;20066;-68
2022/04/03 15:03:10;;;;;;;53.90;14.55;;;;;;;;;;10312150;28;20070;-70
2022/04/03 15:08:17;;;;;;;33.83;10.45;;;;;;;;;;10324378;28;20050;-69
2022/04/03 15:13:20;;;;;;;23.63;8.20;;;;;;;;;;10346845;28;20043;-69
2022/04/03 15:18:22;;;;;;;18.80;7.35;;;;;;;;;;10312939;28;20058;-68
2022/04/03 15:23:26;;;;;;;8.32;5.60;;;;;;;;;;10326095;28;20088;-69
2022/04/03 15:28:29;;;;;;;36.40;13.27;;;;;;;;;;10334555;28;20051;-69
2022/04/03 15:33:31;;;;;;;16.58;7.70;;;;;;;;;;10330610;28;20080;-69
2022/04/03 15:38:39;;;;;;;52.92;18.50;;;;;;;;;;10339702;28;20054;-69
2022/04/03 15:43:41;;;;;;;10.10;5.90;;;;;;;;;;10334683;28;20082;-69
2022/04/03 15:48:47;;;;;;;8.35;5.10;;;;;;;;;;10312324;28;20238;-69
2022/04/03 15:53:52;;;;;;;5.13;3.63;;;;;;;;;;10312122;28;20242;-70
2022/04/03 15:58:54;;;;;;;11.83;4.30;;;;;;;;;;10330759;28;20300;-69
2022/04/03 16:03:57;;;;;;;11.10;4.60;;;;;;;;;;10322506;28;20450;-69
2022/04/03 16:09:01;;;;;;;9.68;3.63;;;;;;;;;;10311980;28;20073;-69
2022/04/03 16:14:03;;;;;;;7.80;3.83;;;;;;;;;;10333935;28;20061;-68
2022/04/03 16:19:06;;;;;;;8.25;4.10;;;;;;;;;;10352710;28;20042;-70
2022/04/03 16:24:09;;;;;;;9.15;4.55;;;;;;;;;;10351612;28;20351;-69
2022/04/03 16:29:11;;;;;;;4.93;3.40;;;;;;;;;;10328429;28;20051;-69
2022/04/03 16:34:14;;;;;;;8.25;4.28;;;;;;;;;;10311175;28;20058;-69
2022/04/03 16:39:17;;;;;;;19.13;10.40;;;;;;;;;;10311918;28;20106;-69
2022/04/03 16:44:20;;;;;;;18.15;6.50;;;;;;;;;;10334245;28;20077;-69
2022/04/03 16:49:23;;;;;;;9.65;4.90;;;;;;;;;;10352267;28;20042;-70
2022/04/03 16:54:27;;;;;;;7.03;4.28;;;;;;;;;;10322390;28;20053;-70
2022/04/03 16:59:29;;;;;;;11.48;4.07;;;;;;;;;;10310521;28;20237;-70
2022/04/03 17:04:32;;;;;;;7.82;4.70;;;;;;;;;;10339466;28;20352;-70
2022/04/03 17:09:35;;;;;;;9.40;4.30;;;;;;;;;;10329380;28;20043;-69
2022/04/03 17:14:38;;;;;;;7.75;4.63;;;;;;;;;;10323451;28;20086;-69
2022/04/03 17:19:42;;;;;;;12.55;4.50;;;;;;;;;;10350991;28;20057;-69
2022/04/03 17:24:46;;;;;;;9.80;5.40;;;;;;;;;;10358505;28;20061;-71
2022/04/03 17:29:48;;;;;;;8.23;4.75;;;;;;;;;;10351539;28;20049;-69
2022/04/03 17:34:51;;;;;;;9.80;5.25;;;;;;;;;;10331298;28;20062;-70
2022/04/03 17:39:56;;;;;;;6.03;3.90;;;;;;;;;;10322911;28;20043;-71
2022/04/03 17:44:59;;;;;;;7.85;4.30;;;;;;;;;;10318316;28;20053;-71
2022/04/03 17:50:01;;;;;;;6.55;4.45;;;;;;;;;;10316006;28;20082;-70
2022/04/03 17:55:09;;;;;;;15.52;9.10;;;;;;;;;;10343220;28;20051;-70
2022/04/03 18:00:12;;;;;;;11.18;6.97;;;;;;;;;;10328848;28;20043;-70
2022/04/03 18:05:15;;;;;;;14.25;7.25;;;;;;;;;;10314892;28;20342;-70
2022/04/03 18:10:20;;;;;;;14.38;6.72;;;;;;;;;;10349284;28;20319;-70
2022/04/03 18:15:22;;;;;;;25.03;11.07;;;;;;;;;;10315128;28;20066;-70
2022/04/03 18:20:25;;;;;;;29.10;12.88;;;;;;;;;;10315426;28;20292;-69
2022/04/03 18:25:28;;;;;;;25.10;10.93;;;;;;;;;;10348874;28;20047;-70
2022/04/03 18:30:31;;;;;;;25.20;10.07;;;;;;;;;;10314869;28;20054;-70
2022/04/03 18:35:36;;;;;;;24.25;9.13;;;;;;;;;;10318507;28;20089;-70
2022/04/03 18:40:39;;;;;;;17.25;8.02;;;;;;;;;;10350365;28;20051;-70
2022/04/03 18:45:42;;;;;;;27.45;12.52;;;;;;;;;;10317208;28;20338;-70
2022/04/03 18:50:45;;;;;;;21.98;9.73;;;;;;;;;;10320996;28;20046;-70
2022/04/03 18:55:48;;;;;;;28.67;11.52;;;;;;;;;;10274174;28;20291;-67
2022/04/03 19:00:51;;;;;;;18.65;8.27;;;;;;;;;;10273209;28;20046;-69
2022/04/03 19:05:54;;;;;;;17.48;8.10;;;;;;;;;;10353192;28;20055;-69
2022/04/03 19:10:58;;;;;;;18.13;8.25;;;;;;;;;;10355245;28;20057;-68
2022/04/03 19:16:00;;;;;;;21.77;9.05;;;;;;;;;;10351873;28;20123;-70
2022/04/03 19:21:03;;;;;;;23.17;10.02;;;;;;;;;;10313518;28;20105;-70
2022/04/03 19:26:07;;;;;;;21.52;9.65;;;;;;;;;;10311350;28;20042;-69
2022/04/03 19:31:09;;;;;;;29.38;9.13;;;;;;;;;;10312667;28;20062;-69
2022/04/03 19:36:12;;;;;;;34.60;12.45;;;;;;;;;;10311653;28;20042;-70
2022/04/03 19:41:15;;;;;;;27.63;10.82;;;;;;;;;;10317178;28;20046;-69
2022/04/03 19:46:18;;;;;;;24.30;10.15;;;;;;;;;;10353629;28;20352;-69
2022/04/03 19:51:21;;;;;;;28.40;10.23;;;;;;;;;;10346223;28;20050;-68
2022/04/03 19:56:24;;;;;;;21.65;8.57;;;;;;;;;;10313787;28;20042;-69
2022/04/03 20:01:27;;;;;;;17.70;8.48;;;;;;;;;;10340673;28;20043;-70
2022/04/03 20:06:30;;;;;;;18.90;9.65;;;;;;;;;;10310599;28;20071;-69
2022/04/03 20:11:37;;;;;;;18.33;7.85;;;;;;;;;;10318839;28;20048;-70
2022/04/03 20:16:40;;;;;;;;;;;;;;;;;;10354396;28;20365;-71
2022/04/03 20:21:45;;;;;;;14.50;6.78;;;;;;;;;;10309903;28;19933;-70
2022/04/03 20:26:49;;;;;;;15.13;7.25;;;;;;;;;;10317080;28;20054;-70
2022/04/03 20:31:51;;;;;;;18.55;8.05;;;;;;;;;;10340941;28;20058;-70
2022/04/03 20:36:53;;;;;;;16.27;7.88;;;;;;;;;;10309499;28;20047;-69
2022/04/03 20:41:57;;;;;;;14.75;7.80;;;;;;;;;;10320927;28;20073;-70
2022/04/03 20:46:59;;;;;;;17.75;8.15;;;;;;;;;;10327119;28;20038;-70
2022/04/03 20:52:02;;;;;;;20.58;8.68;;;;;;;;;;10339169;28;20050;-68
2022/04/03 20:57:06;;;;;;;18.75;8.13;;;;;;;;;;10328865;28;20051;-70
2022/04/03 21:02:10;;;;;;;16.85;8.65;;;;;;;;;;10347634;28;20050;-68
2022/04/03 21:07:13;;;;;;;18.13;8.65;;;;;;;;;;10337223;28;20063;-69
2022/04/03 21:12:17;;;;;;;16.80;8.95;;;;;;;;;;10316728;28;20058;-69
2022/04/03 21:17:19;;;;;;;21.40;9.52;;;;;;;;;;10327492;28;20102;-69
2022/04/03 21:22:21;;;;;;;18.95;9.38;;;;;;;;;;10345054;28;20043;-69
2022/04/03 21:27:25;;;;;;;18.45;9.57;;;;;;;;;;10316753;28;20094;-70
2022/04/03 21:32:29;;;;;;;19.23;9.43;;;;;;;;;;10315577;28;20054;-69
2022/04/03 21:37:31;;;;;;;18.50;9.80;;;;;;;;;;10316029;28;20101;-70
2022/04/03 21:42:35;;;;;;;18.90;9.05;;;;;;;;;;10317131;28;20283;-70
2022/04/03 21:47:37;;;;;;;18.92;8.93;;;;;;;;;;10316577;28;20047;-69
2022/04/03 21:52:40;;;;;;;18.67;9.20;;;;;;;;;;10315876;28;20046;-69
2022/04/03 21:57:44;;;;;;;18.92;8.75;;;;;;;;;;10319930;28;20241;-70
2022/04/03 22:02:47;;;;;;;18.50;8.77;;;;;;;;;;10333236;28;20046;-69
2022/04/03 22:07:49;;;;;;;17.92;8.88;;;;;;;;;;10329027;28;20047;-69
2022/04/03 22:12:53;;;;;;;16.42;8.25;;;;;;;;;;10316715;28;20066;-70
2022/04/03 22:17:55;;;;;;;17.77;8.68;;;;;;;;;;10314940;28;20066;-70
2022/04/03 22:22:57;;;;;;;19.08;8.38;;;;;;;;;;10315039;28;20105;-69
2022/04/03 22:28:01;;;;;;;16.65;8.50;;;;;;;;;;10314893;28;20046;-69
2022/04/03 22:33:04;;;;;;;15.93;8.60;;;;;;;;;;10314477;28;20047;-69
2022/04/03 22:38:06;;;;;;;16.77;8.32;;;;;;;;;;10314247;28;20331;-69
2022/04/03 22:43:10;;;;;;;13.25;7.57;;;;;;;;;;10333158;28;20065;-69
2022/04/03 22:48:13;;;;;;;15.55;7.88;;;;;;;;;;10353785;28;20046;-69
2022/04/03 22:53:16;;;;;;;12.10;7.45;;;;;;;;;;10335978;28;20365;-68
2022/04/03 22:58:20;;;;;;;14.00;7.93;;;;;;;;;;10312473;28;20073;-69
2022/04/03 23:03:22;;;;;;;11.70;6.82;;;;;;;;;;10312898;28;20322;-69
2022/04/03 23:08:25;;;;;;;12.43;7.75;;;;;;;;;;10312801;28;20042;-69
2022/04/03 23:13:28;;;;;;;12.02;7.53;;;;;;;;;;10312652;28;20073;-69
2022/04/03 23:18:31;;;;;;;14.30;7.72;;;;;;;;;;10312557;28;20070;-69
2022/04/03 23:23:33;;;;;;;12.18;7.55;;;;;;;;;;10312145;28;20043;-68
2022/04/03 23:28:36;;;;;;;13.38;7.63;;;;;;;;;;10312012;28;20043;-68
2022/04/03 23:33:39;;;;;;;15.75;7.50;;;;;;;;;;10311157;28;20038;-68
2022/04/03 23:38:42;;;;;;;12.50;7.88;;;;;;;;;;10311558;28;20076;-69
2022/04/03 23:43:45;;;;;;;12.88;7.05;;;;;;;;;;10311726;28;20062;-69
2022/04/03 23:48:48;;;;;;;14.82;7.38;;;;;;;;;;10317925;28;20060;-68
2022/04/03 23:53:50;;;;;;;15.98;7.78;;;;;;;;;;10343935;28;20043;-69
2022/04/03 23:58:54;;;;;;;15.10;7.68;;;;;;;;;;10310214;28;20354;-69
